Time;durP1;ratioP1;P1;durP2;ratioP2;P2;SDS_P1;SDS_P2;PMS_P1;PMS_P2;Temp;Humidity;BMP_temperature;BMP_pressure;BME280_temperature;BME280_humidity;BME280_pressure;Samples;Min_cycle;Max_cycle;Signal;HPM_P1;HPM_P2
2022/06/23 00:02:23;;;;;;;11.80;8.60;;;;;;;;;;5009336;28;20166;-71
2022/06/23 00:04:49;;;;;;;17.85;10.35;;;;;;;;;;5019738;28;20029;-71
2022/06/23 00:07:25;;;;;;;16.00;9.73;;;;;;;;;;5012569;28;20480;-71
2022/06/23 00:09:51;;;;;;;19.25;9.57;;;;;;;;;;5019286;28;20489;-71
2022/06/23 00:12:33;;;;;;;16.55;9.90;;;;;;;;;;5014697;28;20038;-71
2022/06/23 00:14:58;;;;;;;15.93;10.50;;;;;;;;;;5014335;28;20128;-71
2022/06/23 00:17:34;;;;;;;12.32;10.48;;;;;;;;;;5021546;28;20219;-71
2022/06/23 00:20:05;;;;;;;24.60;10.68;;;;;;;;;;5012063;28;20449;-71
2022/06/23 00:22:31;;;;;;;16.17;10.10;;;;;;;;;;5018982;28;20041;-71
2022/06/23 00:24:58;;;;;;;17.80;11.00;;;;;;;;;;5017411;28;20778;-71
2022/06/23 00:27:29;;;;;;;20.63;10.73;;;;;;;;;;5019234;28;20385;-71
2022/06/23 00:29:59;;;;;;;20.05;11.00;;;;;;;;;;5017958;28;20049;-71
2022/06/23 00:32:26;;;;;;;17.60;11.50;;;;;;;;;;5019963;28;20461;-71
2022/06/23 00:35:00;;;;;;;14.50;10.98;;;;;;;;;;5017808;28;20037;-71
2022/06/23 00:37:26;;;;;;;17.50;11.35;;;;;;;;;;5009926;28;20045;-71
2022/06/23 00:39:51;;;;;;;18.75;12.40;;;;;;;;;;5017751;28;20053;-71
2022/06/23 00:42:33;;;;;;;19.65;12.30;;;;;;;;;;5020000;28;20056;-72
2022/06/23 00:45:10;;;;;;;18.02;11.82;;;;;;;;;;5017128;28;20049;-72
2022/06/23 00:47:58;;;;;;;19.25;12.63;;;;;;;;;;5021248;28;20034;-72
2022/06/23 00:50:25;;;;;;;20.52;12.15;;;;;;;;;;5015665;28;20048;-72
2022/06/23 00:52:58;;;;;;;17.80;12.20;;;;;;;;;;5019077;28;20036;-72
2022/06/23 00:55:35;;;;;;;21.30;11.55;;;;;;;;;;5020609;28;20037;-72
2022/06/23 00:58:26;;;;;;;19.73;11.55;;;;;;;;;;5019493;28;20026;-72
2022/06/23 01:00:53;;;;;;;21.48;12.48;;;;;;;;;;4988135;28;20091;-72
2022/06/23 01:03:26;;;;;;;17.33;11.88;;;;;;;;;;5018168;28;20295;-72
2022/06/23 01:06:04;;;;;;;16.38;11.93;;;;;;;;;;5020594;28;20039;-72
2022/06/23 01:08:43;;;;;;;20.23;11.77;;;;;;;;;;5018954;28;20040;-72
2022/06/23 01:11:30;;;;;;;21.27;12.05;;;;;;;;;;5016820;28;20477;-72
2022/06/23 01:14:14;;;;;;;17.98;11.75;;;;;;;;;;5017647;28;20033;-72
2022/06/23 01:16:46;;;;;;;18.33;13.23;;;;;;;;;;5001586;28;20107;-72
2022/06/23 01:19:53;;;;;;;16.92;11.25;;;;;;;;;;5008148;28;20066;-72
2022/06/23 01:22:26;;;;;;;20.92;11.20;;;;;;;;;;5019967;28;20032;-72
2022/06/23 01:25:30;;;;;;;19.27;11.43;;;;;;;;;;5020604;28;20029;-72
2022/06/23 01:28:02;;;;;;;18.30;12.68;;;;;;;;;;4982340;28;20036;-72
2022/06/23 01:30:36;;;;;;;15.18;12.50;;;;;;;;;;5021666;28;20045;-72
2022/06/23 01:33:29;;;;;;;18.60;12.55;;;;;;;;;;5021568;28;20026;-72
2022/06/23 01:36:02;;;;;;;20.80;13.20;;;;;;;;;;5016309;28;20054;-72
2022/06/23 01:38:35;;;;;;;18.27;12.57;;;;;;;;;;5017230;28;20085;-72
2022/06/23 01:41:11;;;;;;;16.70;11.30;;;;;;;;;;5012137;28;20053;-72
2022/06/23 01:43:59;;;;;;;16.40;12.07;;;;;;;;;;5004270;28;20025;-72
2022/06/23 01:46:31;;;;;;;17.90;12.85;;;;;;;;;;5016091;28;20106;-72
2022/06/23 01:49:37;;;;;;;23.77;13.00;;;;;;;;;;4997457;28;20057;-72
2022/06/23 01:52:12;;;;;;;16.13;12.30;;;;;;;;;;4931197;28;20491;-71
2022/06/23 01:54:38;;;;;;;19.42;12.77;;;;;;;;;;5002366;28;20443;-71
2022/06/23 01:57:19;;;;;;;16.67;11.70;;;;;;;;;;5020244;28;20037;-71
2022/06/23 01:59:50;;;;;;;21.33;11.88;;;;;;;;;;5021398;28;20060;-71
2022/06/23 02:02:40;;;;;;;18.23;11.90;;;;;;;;;;5011877;28;20037;-71
2022/06/23 02:05:37;;;;;;;17.38;11.77;;;;;;;;;;5018985;28;20048;-71
2022/06/23 02:08:09;;;;;;;19.77;12.50;;;;;;;;;;5019537;28;20034;-72
2022/06/23 02:10:50;;;;;;;17.73;12.43;;;;;;;;;;5022348;28;20053;-72
2022/06/23 02:13:43;;;;;;;14.45;11.77;;;;;;;;;;5021438;28;20044;-72
2022/06/23 02:16:15;;;;;;;19.80;11.57;;;;;;;;;;5010633;27;20095;-72
2022/06/23 02:19:00;;;;;;;18.00;12.20;;;;;;;;;;5010627;28;20104;-72
2022/06/23 02:21:35;;;;;;;17.13;11.75;;;;;;;;;;5004879;28;20053;-72
2022/06/23 02:24:25;;;;;;;17.30;12.75;;;;;;;;;;5022770;28;20034;-72
2022/06/23 02:27:15;;;;;;;24.50;12.85;;;;;;;;;;5021300;28;20026;-72
2022/06/23 02:29:46;;;;;;;17.25;12.05;;;;;;;;;;5021939;28;20050;-72
2022/06/23 02:32:24;;;;;;;16.75;11.90;;;;;;;;;;5020015;28;20022;-72
2022/06/23 02:35:14;;;;;;;20.38;13.18;;;;;;;;;;5018949;28;20039;-72
2022/06/23 02:37:48;;;;;;;15.32;12.02;;;;;;;;;;5021105;28;20507;-72
2022/06/23 02:40:40;;;;;;;16.33;11.77;;;;;;;;;;5021513;28;20562;-72
2022/06/23 02:43:08;;;;;;;18.40;13.57;;;;;;;;;;5020788;28;20046;-72
2022/06/23 02:45:39;;;;;;;18.00;13.05;;;;;;;;;;5023197;28;20053;-72
2022/06/23 02:48:18;;;;;;;15.02;11.82;;;;;;;;;;5020586;28;20033;-72
2022/06/23 02:51:08;;;;;;;19.38;11.82;;;;;;;;;;5020933;28;20041;-72
2022/06/23 02:53:36;;;;;;;19.42;12.73;;;;;;;;;;5018623;28;20171;-72
2022/06/23 02:56:35;;;;;;;15.75;11.50;;;;;;;;;;5017195;28;20033;-72
2022/06/23 02:59:13;;;;;;;21.15;13.40;;;;;;;;;;5017768;28;20109;-72
2022/06/23 03:01:47;;;;;;;19.20;13.60;;;;;;;;;;5018264;28;20033;-72
2022/06/23 03:04:30;;;;;;;16.10;11.80;;;;;;;;;;5015551;28;20121;-72
2022/06/23 03:07:07;;;;;;;18.40;12.33;;;;;;;;;;5016078;28;20065;-72
2022/06/23 03:09:37;;;;;;;24.00;13.48;;;;;;;;;;5013557;28;20489;-72
2022/06/23 03:12:18;;;;;;;19.38;12.40;;;;;;;;;;5016498;28;20385;-72
2022/06/23 03:14:53;;;;;;;17.63;12.80;;;;;;;;;;5014767;28;20049;-72
2022/06/23 03:17:27;;;;;;;21.45;13.93;;;;;;;;;;5012949;28;20030;-72
2022/06/23 03:20:08;;;;;;;20.33;12.52;;;;;;;;;;5014133;28;20040;-72
2022/06/23 03:22:52;;;;;;;20.13;13.07;;;;;;;;;;5014403;28;20026;-72
2022/06/23 03:25:26;;;;;;;19.88;14.02;;;;;;;;;;5016044;28;20102;-72
2022/06/23 03:28:00;;;;;;;21.45;13.80;;;;;;;;;;5015820;28;20374;-72
2022/06/23 03:30:45;;;;;;;20.90;13.57;;;;;;;;;;5015399;28;20462;-72
2022/06/23 03:33:18;;;;;;;16.73;12.90;;;;;;;;;;5017159;28;20029;-72
2022/06/23 03:35:50;;;;;;;18.73;14.02;;;;;;;;;;5014780;28;20061;-72
2022/06/23 03:41:35;;;;;;;19.77;13.35;;;;;;;;;;5028828;28;20037;-72
2022/06/23 03:44:01;;;;;;;19.55;13.65;;;;;;;;;;5003217;28;20062;-72
2022/06/23 03:46:27;;;;;;;;;;;;;;;;;;5014899;28;20075;-72
2022/06/23 03:49:09;;;;;;;22.60;13.93;;;;;;;;;;5013909;28;19933;-72
2022/06/23 03:51:39;;;;;;;19.58;13.82;;;;;;;;;;5015553;28;20037;-72
2022/06/23 03:54:17;;;;;;;22.15;14.27;;;;;;;;;;5013326;28;20037;-72
2022/06/23 03:57:00;;;;;;;18.35;13.88;;;;;;;;;;5014921;28;20128;-72
2022/06/23 03:59:31;;;;;;;20.38;13.50;;;;;;;;;;5028441;28;20038;-72
2022/06/23 04:02:14;;;;;;;19.23;13.80;;;;;;;;;;5013449;28;20042;-72
2022/06/23 04:04:51;;;;;;;20.10;13.20;;;;;;;;;;5010459;28;20053;-71
2022/06/23 04:07:46;;;;;;;18.38;13.63;;;;;;;;;;5016075;28;20045;-66
2022/06/23 04:10:13;;;;;;;18.95;13.27;;;;;;;;;;5014133;28;20052;-65
2022/06/23 04:12:44;;;;;;;18.13;12.55;;;;;;;;;;5010739;28;20052;-64
2022/06/23 04:15:14;;;;;;;20.40;13.43;;;;;;;;;;5015866;28;20046;-64
2022/06/23 04:17:44;;;;;;;19.08;13.98;;;;;;;;;;5008046;28;20034;-72
2022/06/23 04:20:19;;;;;;;15.68;12.13;;;;;;;;;;5014518;28;20033;-71
2022/06/23 04:23:00;;;;;;;19.67;13.32;;;;;;;;;;5006066;28;20496;-71
2022/06/23 04:25:51;;;;;;;21.70;13.55;;;;;;;;;;4999921;28;20032;-71
2022/06/23 04:28:35;;;;;;;17.23;12.00;;;;;;;;;;5000186;28;20027;-71
2022/06/23 04:31:05;;;;;;;20.88;12.90;;;;;;;;;;5002837;28;20145;-71
2022/06/23 04:33:35;;;;;;;20.85;12.98;;;;;;;;;;5002277;28;20057;-71
2022/06/23 04:36:01;;;;;;;14.85;11.98;;;;;;;;;;5003910;28;20068;-71
2022/06/23 04:38:40;;;;;;;18.17;12.57;;;;;;;;;;5020294;28;20022;-71
2022/06/23 04:41:11;;;;;;;17.38;12.40;;;;;;;;;;5022682;28;20029;-71
2022/06/23 04:43:41;;;;;;;16.33;12.25;;;;;;;;;;5022554;28;20473;-71
2022/06/23 04:46:09;;;;;;;23.25;12.73;;;;;;;;;;5020873;28;20103;-71
2022/06/23 04:48:56;;;;;;;20.25;13.20;;;;;;;;;;5021733;28;20163;-71
2022/06/23 04:51:39;;;;;;;17.33;12.80;;;;;;;;;;5018321;28;20059;-71
2022/06/23 04:54:13;;;;;;;17.35;12.23;;;;;;;;;;5018714;28;20057;-71
2022/06/23 04:56:40;;;;;;;16.73;12.07;;;;;;;;;;5023678;28;20030;-71
2022/06/23 04:59:23;;;;;;;18.70;12.02;;;;;;;;;;5025418;28;20037;-71
2022/06/23 05:01:50;;;;;;;17.23;12.32;;;;;;;;;;5024089;28;20078;-71
2022/06/23 05:04:27;;;;;;;14.98;11.23;;;;;;;;;;5024205;28;20021;-71
2022/06/23 05:06:55;;;;;;;13.32;10.80;;;;;;;;;;5025584;28;20370;-71
2022/06/23 05:09:33;;;;;;;16.08;11.98;;;;;;;;;;5025371;28;20099;-71
2022/06/23 05:12:05;;;;;;;16.25;12.32;;;;;;;;;;5025589;28;20541;-71
2022/06/23 05:14:41;;;;;;;16.08;11.85;;;;;;;;;;5023193;28;20032;-71
2022/06/23 05:17:13;;;;;;;18.98;11.85;;;;;;;;;;5024052;28;20034;-71
2022/06/23 05:19:40;;;;;;;13.83;10.67;;;;;;;;;;5023832;28;20028;-71
2022/06/23 05:22:17;;;;;;;14.15;10.20;;;;;;;;;;5024145;28;20331;-71
2022/06/23 05:24:44;;;;;;;13.75;10.30;;;;;;;;;;5023826;28;20036;-71
2022/06/23 05:27:23;;;;;;;16.50;10.48;;;;;;;;;;5025136;28;20388;-71
2022/06/23 05:30:07;;;;;;;13.52;10.13;;;;;;;;;;5023335;28;20124;-71
2022/06/23 05:32:40;;;;;;;14.60;9.50;;;;;;;;;;5025052;28;20036;-71
2022/06/23 05:35:05;;;;;;;;;;;;;;;;;;5025665;28;20616;-71
2022/06/23 05:37:36;;;;;;;14.43;9.70;;;;;;;;;;5031386;28;19905;-71
2022/06/23 05:40:19;;;;;;;13.20;9.40;;;;;;;;;;5020897;28;20445;-71
2022/06/23 05:42:48;;;;;;;18.58;9.55;;;;;;;;;;5024832;28;20503;-71
2022/06/23 05:45:19;;;;;;;17.98;10.50;;;;;;;;;;5023090;28;20028;-71
2022/06/23 05:47:45;;;;;;;13.85;9.82;;;;;;;;;;5023114;28;20049;-71
2022/06/23 05:50:15;;;;;;;20.30;9.13;;;;;;;;;;5023482;28;20420;-71
2022/06/23 05:53:03;;;;;;;15.25;10.38;;;;;;;;;;5022816;28;20021;-71
2022/06/23 05:55:33;;;;;;;14.55;9.95;;;;;;;;;;5018526;28;20034;-72
2022/06/23 05:58:13;;;;;;;16.83;9.77;;;;;;;;;;5003402;28;20026;-72
2022/06/23 06:00:45;;;;;;;17.60;8.85;;;;;;;;;;5002990;28;20026;-71
2022/06/23 06:03:19;;;;;;;13.93;9.15;;;;;;;;;;5003149;28;20030;-71
2022/06/23 06:05:48;;;;;;;14.85;9.48;;;;;;;;;;5004652;28;20054;-71
2022/06/23 06:08:23;;;;;;;11.70;8.00;;;;;;;;;;5003898;28;20605;-71
2022/06/23 06:10:50;;;;;;;12.48;8.77;;;;;;;;;;5004855;28;20704;-71
2022/06/23 06:13:21;;;;;;;15.05;8.90;;;;;;;;;;5004931;28;20038;-71
2022/06/23 06:15:52;;;;;;;11.18;7.95;;;;;;;;;;5024104;28;20086;-71
2022/06/23 06:18:24;;;;;;;16.08;7.80;;;;;;;;;;5024258;28;20429;-71
2022/06/23 06:20:53;;;;;;;15.20;9.15;;;;;;;;;;5022803;28;20108;-71
2022/06/23 06:23:29;;;;;;;10.90;7.53;;;;;;;;;;5022760;28;20067;-71
2022/06/23 06:25:55;;;;;;;13.23;7.65;;;;;;;;;;5011586;28;20034;-71
2022/06/23 06:28:22;;;;;;;14.73;7.82;;;;;;;;;;5003396;28;20495;-71
2022/06/23 06:30:56;;;;;;;9.63;7.18;;;;;;;;;;5002934;28;20512;-71
2022/06/23 06:34:03;;;;;;;10.05;6.50;;;;;;;;;;5004227;28;20055;-71
2022/06/23 06:36:34;;;;;;;10.10;7.30;;;;;;;;;;5004126;28;20118;-71
2022/06/23 06:39:30;;;;;;;12.65;7.03;;;;;;;;;;5004000;28;20098;-71
2022/06/23 06:42:05;;;;;;;9.88;7.00;;;;;;;;;;4995819;28;20042;-71
2022/06/23 06:44:32;;;;;;;9.90;7.63;;;;;;;;;;5002941;28;20042;-71
2022/06/23 06:46:57;;;;;;;10.57;6.75;;;;;;;;;;5004355;28;20038;-71
2022/06/23 06:49:25;;;;;;;12.25;7.38;;;;;;;;;;5003100;28;20042;-71
2022/06/23 06:51:52;;;;;;;13.77;8.35;;;;;;;;;;5004087;28;20050;-72
2022/06/23 06:54:21;;;;;;;9.98;6.57;;;;;;;;;;5002980;28;20037;-72
2022/06/23 06:56:51;;;;;;;13.50;7.30;;;;;;;;;;5002596;28;20034;-72
2022/06/23 06:59:33;;;;;;;11.60;7.30;;;;;;;;;;5002765;28;20337;-72
2022/06/23 07:02:04;;;;;;;16.65;7.43;;;;;;;;;;5002412;28;20038;-72
2022/06/23 07:04:33;;;;;;;13.05;6.45;;;;;;;;;;5002608;28;20045;-72
2022/06/23 07:07:03;;;;;;;8.52;5.95;;;;;;;;;;5002152;28;20032;-72
2022/06/23 07:09:39;;;;;;;10.15;5.47;;;;;;;;;;5004036;28;20125;-72
2022/06/23 07:12:19;;;;;;;10.88;6.45;;;;;;;;;;5004394;28;20034;-72
2022/06/23 07:14:51;;;;;;;11.05;7.10;;;;;;;;;;5004572;28;20029;-72
2022/06/23 07:17:21;;;;;;;11.63;6.05;;;;;;;;;;5003725;28;20041;-72
2022/06/23 07:19:55;;;;;;;12.85;5.82;;;;;;;;;;5001003;28;20370;-72
2022/06/23 07:22:35;;;;;;;7.35;4.60;;;;;;;;;;5002759;28;20032;-72
2022/06/23 07:25:18;;;;;;;11.95;5.88;;;;;;;;;;5002721;28;20030;-72
2022/06/23 07:27:49;;;;;;;8.80;4.88;;;;;;;;;;4986195;28;20033;-72
2022/06/23 07:30:26;;;;;;;9.55;5.20;;;;;;;;;;5004251;28;20041;-72
2022/06/23 07:32:59;;;;;;;18.30;5.75;;;;;;;;;;5004101;28;20073;-72
2022/06/23 07:35:36;;;;;;;8.57;4.80;;;;;;;;;;5003128;28;20138;-72
2022/06/23 07:38:20;;;;;;;12.88;5.40;;;;;;;;;;5002809;28;20064;-72
2022/06/23 07:40:53;;;;;;;9.88;4.38;;;;;;;;;;5004075;28;20498;-72
2022/06/23 07:43:31;;;;;;;7.28;4.10;;;;;;;;;;5004628;28;20087;-72
2022/06/23 07:45:58;;;;;;;9.18;3.70;;;;;;;;;;5004488;28;20065;-72
2022/06/23 07:48:25;;;;;;;6.25;3.33;;;;;;;;;;5004587;28;20022;-72
2022/06/23 07:50:50;;;;;;;9.02;4.05;;;;;;;;;;5003137;28;20048;-72
2022/06/23 07:53:45;;;;;;;9.77;3.83;;;;;;;;;;5004499;28;20102;-72
2022/06/23 07:56:14;;;;;;;7.70;3.72;;;;;;;;;;5004387;28;20402;-72
2022/06/23 07:58:42;;;;;;;9.38;3.65;;;;;;;;;;5003450;28;20030;-72
2022/06/23 08:01:29;;;;;;;9.73;3.70;;;;;;;;;;5002781;28;20466;-72
2022/06/23 08:03:55;;;;;;;8.27;3.55;;;;;;;;;;5003023;28;20037;-72
2022/06/23 08:06:21;;;;;;;10.30;3.58;;;;;;;;;;5005780;28;20049;-72
2022/06/23 08:08:48;;;;;;;7.00;3.83;;;;;;;;;;5018598;28;20116;-72
2022/06/23 08:14:04;;;;;;;9.40;3.22;;;;;;;;;;5023591;28;20106;-72
2022/06/23 08:16:49;;;;;;;7.32;3.70;;;;;;;;;;5020673;28;20159;-72
2022/06/23 08:19:38;;;;;;;9.05;3.28;;;;;;;;;;5002828;28;20041;-72
2022/06/23 08:22:06;;;;;;;10.30;3.38;;;;;;;;;;5001667;28;20033;-72
2022/06/23 08:24:32;;;;;;;8.68;3.20;;;;;;;;;;5002962;28;20456;-72
2022/06/23 08:27:01;;;;;;;8.40;3.10;;;;;;;;;;5001527;28;20037;-72
2022/06/23 08:29:33;;;;;;;10.88;3.58;;;;;;;;;;5000859;28;20094;-72
2022/06/23 08:31:59;;;;;;;11.35;2.83;;;;;;;;;;5002846;28;20026;-72
2022/06/23 08:34:25;;;;;;;9.00;2.55;;;;;;;;;;5001592;28;20177;-72
2022/06/23 08:36:54;;;;;;;4.32;2.47;;;;;;;;;;5002791;28;20682;-72
2022/06/23 08:39:37;;;;;;;11.48;2.65;;;;;;;;;;5000722;28;20082;-72
2022/06/23 08:42:03;;;;;;;12.18;2.85;;;;;;;;;;5002495;28;20044;-72
2022/06/23 08:44:54;;;;;;;5.28;2.50;;;;;;;;;;5003131;28;21016;-72
2022/06/23 08:47:41;;;;;;;8.18;2.50;;;;;;;;;;5002729;28;20052;-73
2022/06/23 08:50:31;;;;;;;7.82;2.25;;;;;;;;;;5002800;28;20129;-73
2022/06/23 08:53:01;;;;;;;7.30;2.50;;;;;;;;;;5003172;28;20054;-73
2022/06/23 08:55:32;;;;;;;6.45;2.60;;;;;;;;;;5002774;28;20460;-73
2022/06/23 08:58:08;;;;;;;5.68;2.28;;;;;;;;;;5001485;28;20030;-73
2022/06/23 09:00:37;;;;;;;5.30;2.28;;;;;;;;;;5001666;28;20075;-72
2022/06/23 09:03:15;;;;;;;6.80;2.25;;;;;;;;;;5002691;28;20030;-72
2022/06/23 09:05:54;;;;;;;4.28;2.35;;;;;;;;;;5001062;28;20397;-72
2022/06/23 09:08:33;;;;;;;6.80;2.30;;;;;;;;;;5003260;28;20030;-72
2022/06/23 09:11:09;;;;;;;9.32;2.72;;;;;;;;;;5002493;28;20048;-72
2022/06/23 09:13:59;;;;;;;10.38;2.55;;;;;;;;;;5001366;28;20446;-73
2022/06/23 09:16:50;;;;;;;6.32;2.17;;;;;;;;;;5002721;28;20075;-72
2022/06/23 09:19:19;;;;;;;4.78;2.53;;;;;;;;;;5002689;28;20508;-71
2022/06/23 09:22:11;;;;;;;6.85;2.10;;;;;;;;;;5002113;28;20160;-71
2022/06/23 09:24:48;;;;;;;5.90;2.00;;;;;;;;;;5002756;28;20030;-70
2022/06/23 09:27:29;;;;;;;6.32;2.50;;;;;;;;;;5001001;28;20026;-70
2022/06/23 09:29:55;;;;;;;6.50;2.30;;;;;;;;;;5001992;28;20077;-70
2022/06/23 09:32:39;;;;;;;7.18;2.63;;;;;;;;;;5002285;28;20060;-70
2022/06/23 09:35:19;;;;;;;6.40;2.55;;;;;;;;;;5002215;28;20121;-70
2022/06/23 09:37:58;;;;;;;8.63;2.45;;;;;;;;;;5001938;28;20034;-70
2022/06/23 09:40:35;;;;;;;6.43;2.42;;;;;;;;;;5001524;28;20080;-70
2022/06/23 09:43:09;;;;;;;9.00;2.53;;;;;;;;;;5002457;28;20405;-70
2022/06/23 09:46:03;;;;;;;5.82;2.50;;;;;;;;;;5005825;28;20026;-70
2022/06/23 09:48:46;;;;;;;9.95;2.75;;;;;;;;;;5006179;28;20089;-71
2022/06/23 09:51:24;;;;;;;6.63;2.40;;;;;;;;;;5003747;28;20496;-71
2022/06/23 09:54:12;;;;;;;5.72;2.33;;;;;;;;;;5005422;28;20504;-71
2022/06/23 09:56:47;;;;;;;8.55;2.63;;;;;;;;;;5004947;28;21415;-71
2022/06/23 09:59:44;;;;;;;7.40;2.40;;;;;;;;;;5003856;28;20040;-71
2022/06/23 10:02:22;;;;;;;5.70;2.45;;;;;;;;;;5003621;28;20466;-71
2022/06/23 10:05:06;;;;;;;4.80;2.47;;;;;;;;;;5005892;28;20037;-71
2022/06/23 10:07:43;;;;;;;9.25;2.80;;;;;;;;;;5005649;28;20623;-71
2022/06/23 10:10:52;;;;;;;5.50;2.20;;;;;;;;;;5005188;28;20046;-71
2022/06/23 10:13:43;;;;;;;6.55;2.30;;;;;;;;;;5002860;28;20034;-71
2022/06/23 10:16:29;;;;;;;9.63;2.67;;;;;;;;;;5003970;28;20030;-71
2022/06/23 10:19:39;;;;;;;8.45;2.17;;;;;;;;;;5003645;28;20163;-71
2022/06/23 10:22:12;;;;;;;7.47;2.40;;;;;;;;;;4999511;28;20070;-71
2022/06/23 10:24:59;;;;;;;5.50;2.33;;;;;;;;;;5005418;28;20121;-71
2022/06/23 10:28:01;;;;;;;6.53;2.40;;;;;;;;;;5005110;28;20113;-70
2022/06/23 10:30:39;;;;;;;5.03;2.28;;;;;;;;;;5005006;28;20042;-70
2022/06/23 10:33:22;;;;;;;9.43;2.20;;;;;;;;;;5005326;28;20113;-71
2022/06/23 10:36:02;;;;;;;6.95;2.55;;;;;;;;;;5005072;28;20496;-71
2022/06/23 10:38:38;;;;;;;8.05;2.45;;;;;;;;;;5004973;28;20030;-71
2022/06/23 10:41:21;;;;;;;7.68;2.03;;;;;;;;;;5003362;28;20076;-71
2022/06/23 10:43:53;;;;;;;4.00;1.90;;;;;;;;;;5011547;28;20512;-71
2022/06/23 10:46:36;;;;;;;3.27;1.80;;;;;;;;;;5010446;28;20042;-71
2022/06/23 10:49:12;;;;;;;4.90;2.35;;;;;;;;;;5005056;28;20048;-71
2022/06/23 10:51:45;;;;;;;3.95;1.80;;;;;;;;;;5002962;28;20101;-71
2022/06/23 10:54:24;;;;;;;4.93;1.95;;;;;;;;;;5004210;28;20046;-71
2022/06/23 10:57:01;;;;;;;5.35;2.55;;;;;;;;;;5002840;28;20569;-71
2022/06/23 10:59:39;;;;;;;5.53;1.83;;;;;;;;;;5002992;28;20214;-70
2022/06/23 11:02:19;;;;;;;7.60;2.05;;;;;;;;;;5003431;28;20025;-71
2022/06/23 11:05:19;;;;;;;8.13;2.78;;;;;;;;;;5002661;28;20063;-71
2022/06/23 11:08:23;;;;;;;5.88;2.28;;;;;;;;;;5004408;28;20030;-71
2022/06/23 11:11:16;;;;;;;8.45;2.50;;;;;;;;;;4995944;28;20042;-71
2022/06/23 11:14:03;;;;;;;5.57;2.20;;;;;;;;;;5004344;28;20049;-71
2022/06/23 11:16:47;;;;;;;7.72;2.38;;;;;;;;;;5002404;28;20022;-71
2022/06/23 11:19:53;;;;;;;6.85;2.47;;;;;;;;;;5004227;28;20040;-71
2022/06/23 11:22:32;;;;;;;5.38;2.22;;;;;;;;;;5002471;28;20556;-71
2022/06/23 11:25:06;;;;;;;4.43;2.13;;;;;;;;;;5002496;28;20033;-71
2022/06/23 11:27:47;;;;;;;6.30;2.50;;;;;;;;;;5004123;28;20034;-71
2022/06/23 11:30:58;;;;;;;8.23;2.55;;;;;;;;;;5020833;28;20095;-71
2022/06/23 11:33:54;;;;;;;4.57;2.45;;;;;;;;;;5023359;28;20045;-71
2022/06/23 11:37:02;;;;;;;6.88;2.85;;;;;;;;;;5023115;28;20034;-71
2022/06/23 11:39:58;;;;;;;6.05;2.70;;;;;;;;;;5021194;28;20052;-71
2022/06/23 11:42:52;;;;;;;5.95;2.33;;;;;;;;;;5023201;28;20026;-72
2022/06/23 11:45:33;;;;;;;6.22;2.15;;;;;;;;;;5004173;28;20036;-72
2022/06/23 11:48:25;;;;;;;5.13;2.28;;;;;;;;;;5001382;28;20074;-72
2022/06/23 11:51:13;;;;;;;7.75;3.28;;;;;;;;;;5002871;28;20063;-72
2022/06/23 11:54:03;;;;;;;5.13;2.50;;;;;;;;;;5003871;28;20396;-71
2022/06/23 11:56:31;;;;;;;6.10;2.28;;;;;;;;;;5001912;28;20107;-72
2022/06/23 11:59:12;;;;;;;4.03;2.35;;;;;;;;;;5003294;28;20084;-72
2022/06/23 12:01:38;;;;;;;5.40;2.27;;;;;;;;;;5001680;28;20067;-72
2022/06/23 12:04:27;;;;;;;5.50;2.05;;;;;;;;;;5003659;28;20038;-72
2022/06/23 12:07:09;;;;;;;5.90;2.63;;;;;;;;;;5001729;28;20030;-72
2022/06/23 12:09:46;;;;;;;10.43;3.13;;;;;;;;;;5003034;28;20046;-72
2022/06/23 12:12:11;;;;;;;7.55;2.40;;;;;;;;;;5002837;28;20034;-72
2022/06/23 12:14:37;;;;;;;9.80;2.33;;;;;;;;;;5007816;28;22138;-72
2022/06/23 12:17:11;;;;;;;6.35;2.72;;;;;;;;;;5022427;28;20033;-71
2022/06/23 12:19:45;;;;;;;6.38;2.60;;;;;;;;;;5020781;28;20044;-72
2022/06/23 12:22:19;;;;;;;4.93;2.22;;;;;;;;;;5018216;28;20021;-72
2022/06/23 12:25:04;;;;;;;7.80;2.92;;;;;;;;;;5002888;28;20025;-72
2022/06/23 12:27:36;;;;;;;6.63;2.42;;;;;;;;;;4985293;28;20366;-71
2022/06/23 12:30:12;;;;;;;;;;;;;;;;;;5001526;28;20608;-71
2022/06/23 12:33:19;;;;;;;5.68;2.08;;;;;;;;;;5001181;28;20377;-72
2022/06/23 12:35:54;;;;;;;6.47;2.35;;;;;;;;;;4944744;28;20046;-72
2022/06/23 12:38:26;;;;;;;5.97;2.45;;;;;;;;;;4952069;28;20026;-72
2022/06/23 12:40:57;;;;;;;3.92;2.28;;;;;;;;;;4976763;28;20505;-71
2022/06/23 12:43:32;;;;;;;6.32;2.53;;;;;;;;;;5001000;28;20363;-72
2022/06/23 12:46:31;;;;;;;9.98;2.45;;;;;;;;;;5001297;28;20490;-72
2022/06/23 12:49:15;;;;;;;7.25;2.30;;;;;;;;;;5002409;28;20037;-72
2022/06/23 12:52:04;;;;;;;4.65;2.60;;;;;;;;;;5002128;28;20059;-72
2022/06/23 12:55:03;;;;;;;4.78;2.00;;;;;;;;;;5002203;28;20099;-72
2022/06/23 12:57:54;;;;;;;4.93;2.55;;;;;;;;;;5000567;28;20022;-72
2022/06/23 13:00:26;;;;;;;5.07;2.70;;;;;;;;;;5017372;28;20063;-72
2022/06/23 13:02:58;;;;;;;6.72;3.00;;;;;;;;;;5002708;28;20265;-72
2022/06/23 13:05:31;;;;;;;4.80;2.30;;;;;;;;;;5001568;28;20049;-72
2022/06/23 13:08:02;;;;;;;5.13;2.35;;;;;;;;;;5021218;28;20116;-71
2022/06/23 13:10:47;;;;;;;5.50;3.05;;;;;;;;;;5020477;28;20061;-71
2022/06/23 13:13:12;;;;;;;6.45;2.63;;;;;;;;;;5020130;28;20046;-71
2022/06/23 13:15:47;;;;;;;10.33;3.13;;;;;;;;;;5022291;28;24252;-71
2022/06/23 13:18:25;;;;;;;3.97;2.70;;;;;;;;;;5023738;28;20313;-71
2022/06/23 13:21:00;;;;;;;7.13;2.20;;;;;;;;;;5019877;28;20116;-71
2022/06/23 13:23:36;;;;;;;6.05;2.45;;;;;;;;;;5004056;28;20420;-71
2022/06/23 13:26:11;;;;;;;8.27;2.90;;;;;;;;;;5003895;28;20401;-71
2022/06/23 13:28:39;;;;;;;8.10;2.85;;;;;;;;;;5003893;28;20063;-71
2022/06/23 13:31:20;;;;;;;4.35;2.40;;;;;;;;;;5003671;28;20042;-71
2022/06/23 13:34:20;;;;;;;6.07;2.28;;;;;;;;;;5003929;28;20094;-71
2022/06/23 13:36:52;;;;;;;7.00;2.85;;;;;;;;;;5003817;28;20124;-71
2022/06/23 13:39:30;;;;;;;8.10;2.65;;;;;;;;;;5003569;28;20034;-71
2022/06/23 13:42:07;;;;;;;7.45;3.00;;;;;;;;;;5003735;28;20070;-71
2022/06/23 13:44:46;;;;;;;8.25;3.25;;;;;;;;;;5003997;28;20018;-71
2022/06/23 13:47:31;;;;;;;8.77;3.13;;;;;;;;;;5003775;28;20022;-71
2022/06/23 13:50:02;;;;;;;7.07;2.65;;;;;;;;;;5003659;28;20054;-71
2022/06/23 13:52:41;;;;;;;5.10;2.78;;;;;;;;;;5003538;28;20041;-71
2022/06/23 13:55:08;;;;;;;6.30;3.47;;;;;;;;;;5003625;28;20438;-72
2022/06/23 13:57:38;;;;;;;8.48;2.58;;;;;;;;;;5004793;28;20401;-72
2022/06/23 14:00:43;;;;;;;7.22;2.80;;;;;;;;;;5004860;28;20388;-72
2022/06/23 14:03:28;;;;;;;5.95;2.67;;;;;;;;;;5004478;28;20022;-72
2022/06/23 14:06:00;;;;;;;6.30;2.90;;;;;;;;;;5003656;28;20038;-72
2022/06/23 14:08:32;;;;;;;7.72;2.83;;;;;;;;;;5003861;28;20087;-72
2022/06/23 14:11:16;;;;;;;5.63;3.20;;;;;;;;;;5004997;28;20038;-72
2022/06/23 14:14:02;;;;;;;6.80;3.63;;;;;;;;;;5004617;28;20084;-72
2022/06/23 14:16:57;;;;;;;5.55;2.90;;;;;;;;;;5005132;28;20018;-72
2022/06/23 14:19:41;;;;;;;6.25;2.97;;;;;;;;;;5004882;28;20053;-72
2022/06/23 14:22:14;;;;;;;6.07;3.08;;;;;;;;;;5004873;28;20030;-72
2022/06/23 14:25:02;;;;;;;6.78;2.65;;;;;;;;;;5007238;28;20030;-72
2022/06/23 14:27:41;;;;;;;7.18;2.90;;;;;;;;;;5022139;28;20469;-72
2022/06/23 14:30:18;;;;;;;8.20;3.60;;;;;;;;;;5024120;28;20446;-72
2022/06/23 14:32:49;;;;;;;4.38;3.03;;;;;;;;;;5015610;28;20071;-72
2022/06/23 14:35:27;;;;;;;9.27;3.33;;;;;;;;;;5003122;28;20113;-72
2022/06/23 14:38:01;;;;;;;8.80;3.60;;;;;;;;;;5003105;28;20703;-72
2022/06/23 14:40:59;;;;;;;6.15;3.20;;;;;;;;;;5002692;28;20057;-72
2022/06/23 14:43:35;;;;;;;7.22;3.13;;;;;;;;;;5004161;28;20088;-72
2022/06/23 14:46:34;;;;;;;6.60;2.92;;;;;;;;;;5004440;28;20113;-72
2022/06/23 14:49:14;;;;;;;9.23;3.47;;;;;;;;;;5002391;28;20026;-72
2022/06/23 14:51:50;;;;;;;7.70;2.90;;;;;;;;;;5004509;28;20026;-72
2022/06/23 14:54:34;;;;;;;5.68;3.30;;;;;;;;;;5002351;28;20040;-72
2022/06/23 14:57:22;;;;;;;6.35;3.10;;;;;;;;;;5004284;28;20500;-72
2022/06/23 14:59:57;;;;;;;6.15;2.67;;;;;;;;;;5004006;28;20427;-72
2022/06/23 15:02:37;;;;;;;5.38;2.63;;;;;;;;;;5002065;28;20033;-72
2022/06/23 15:05:27;;;;;;;5.07;3.22;;;;;;;;;;5003932;28;20033;-73
2022/06/23 15:07:58;;;;;;;10.18;2.85;;;;;;;;;;5012453;28;20022;-72
2022/06/23 15:10:49;;;;;;;9.07;3.13;;;;;;;;;;5002535;28;20058;-72
2022/06/23 15:13:27;;;;;;;16.77;3.47;;;;;;;;;;5002529;28;20113;-72
2022/06/23 15:16:04;;;;;;;6.00;2.75;;;;;;;;;;5004035;28;20054;-72
2022/06/23 15:18:56;;;;;;;12.35;3.13;;;;;;;;;;5003882;28;20422;-72
2022/06/23 15:24:24;;;;;;;7.53;3.72;;;;;;;;;;5003990;28;20034;-72
2022/06/23 15:27:03;;;;;;;4.88;2.83;;;;;;;;;;5002174;28;20030;-72
2022/06/23 15:29:39;;;;;;;7.97;2.88;;;;;;;;;;5002292;28;20038;-72
2022/06/23 15:32:17;;;;;;;7.10;3.05;;;;;;;;;;5001965;28;20505;-72
2022/06/23 15:34:50;;;;;;;9.25;3.15;;;;;;;;;;5001680;28;20537;-72
2022/06/23 15:37:36;;;;;;;6.10;3.20;;;;;;;;;;5003732;28;20044;-73
2022/06/23 15:40:07;;;;;;;9.25;3.03;;;;;;;;;;5015521;28;20045;-73
2022/06/23 15:42:42;;;;;;;6.33;3.20;;;;;;;;;;5016942;28;20124;-73
2022/06/23 15:45:23;;;;;;;4.97;3.13;;;;;;;;;;5005103;28;20806;-72
2022/06/23 15:48:01;;;;;;;10.05;3.28;;;;;;;;;;5017336;28;20106;-72